Time;durP1;ratioP1;P1;durP2;ratioP2;P2;SDS_P1;SDS_P2;PMS_P1;PMS_P2;Temp;Humidity;BMP_temperature;BMP_pressure;BME280_temperature;BME280_humidity;BME280_pressure;Samples;Min_cycle;Max_cycle;Signal;HPM_P1;HPM_P2
2022/04/06 00:00:31;;;;;;;8.23;1.70;;;;;;;0.16;100.00;99397.44;5003441;28;20057;-78
2022/04/06 00:02:58;;;;;;;7.78;2.42;;;;;;;0.02;100.00;99375.13;5000748;28;20407;-78
2022/04/06 00:05:23;;;;;;;8.27;2.20;;;;;;;0.18;100.00;99398.09;5016692;28;20511;-78
2022/04/06 00:07:49;;;;;;;4.18;2.17;;;;;;;0.16;100.00;99403.53;5013151;28;20113;-78
2022/04/06 00:10:15;;;;;;;4.32;2.30;;;;;;;0.16;100.00;99392.13;5014218;28;20069;-78
2022/04/06 00:12:40;;;;;;;4.90;2.40;;;;;;;0.13;100.00;99388.03;5011396;28;20484;-78
2022/04/06 00:15:11;;;;;;;8.60;2.65;;;;;;;-0.01;100.00;99372.81;5014335;28;20436;-78
2022/04/06 00:17:38;;;;;;;11.13;2.47;;;;;;;0.13;100.00;99390.69;5012568;28;20037;-78
2022/04/06 00:20:05;;;;;;;7.15;2.92;;;;;;;0.11;100.00;99391.81;4995577;28;20474;-78
2022/04/06 00:22:31;;;;;;;7.80;2.75;;;;;;;0.09;100.00;99391.97;5012499;28;20053;-78
2022/04/06 00:25:02;;;;;;;6.28;2.90;;;;;;;0.09;100.00;99396.44;5013291;28;20467;-77
2022/04/06 00:27:28;;;;;;;6.28;2.63;;;;;;;0.04;100.00;99372.34;4995827;28;20073;-78
2022/04/06 00:29:53;;;;;;;8.13;2.47;;;;;;;0.15;100.00;99383.38;5014206;28;20064;-78
2022/04/06 00:32:18;;;;;;;5.97;2.50;;;;;;;0.23;100.00;99385.19;5012502;28;20125;-78
2022/04/06 00:37:28;;;;;;;5.47;2.83;;;;;;;0.37;100.00;99391.63;5011291;28;20045;-78
2022/04/06 00:39:54;;;;;;;10.77;3.83;;;;;;;0.43;100.00;99394.44;4997074;28;20038;-78
2022/04/06 00:42:19;;;;;;;5.65;2.78;;;;;;;0.40;100.00;99378.91;4995186;28;20515;-77
2022/04/06 00:44:44;;;;;;;8.55;2.92;;;;;;;0.51;100.00;99387.47;5013962;28;20052;-78
2022/04/06 00:47:10;;;;;;;6.35;2.67;;;;;;;0.52;100.00;99383.81;5012386;28;20361;-78
2022/04/06 00:49:35;;;;;;;11.13;3.20;;;;;;;0.49;100.00;99379.69;5013133;28;20080;-78
2022/04/06 00:52:04;;;;;;;6.15;3.10;;;;;;;0.56;100.00;99385.13;5012254;28;20034;-78
2022/04/06 00:54:32;;;;;;;7.15;2.97;;;;;;;0.56;100.00;99382.47;5014562;28;20037;-77
2022/04/06 00:57:00;;;;;;;6.20;2.85;;;;;;;0.50;100.00;99375.22;5016639;28;20018;-78
2022/04/06 00:59:28;;;;;;;6.78;3.13;;;;;;;0.56;100.00;99383.28;5016865;28;20018;-77
2022/04/06 01:01:54;;;;;;;6.50;2.88;;;;;;;0.50;100.00;99359.34;5015229;28;20104;-77
2022/04/06 01:04:19;;;;;;;7.38;3.30;;;;;;;0.62;100.00;99374.69;5018143;28;20428;-77
2022/04/06 01:06:47;;;;;;;10.73;3.50;;;;;;;0.57;100.00;99369.09;5015672;28;20091;-78
2022/04/06 01:09:18;;;;;;;8.35;3.28;;;;;;;0.46;100.00;99341.16;5016553;28;20145;-78
2022/04/06 01:11:48;;;;;;;11.48;3.10;;;;;;;0.55;100.00;99349.06;5016029;28;20116;-77
2022/04/06 01:14:15;;;;;;;8.93;3.72;;;;;;;0.65;100.00;99368.22;5020813;28;20064;-77
2022/04/06 01:16:41;;;;;;;7.50;3.08;;;;;;;0.64;100.00;99366.59;5023318;28;20412;-78
2022/04/06 01:19:07;;;;;;;12.75;3.10;;;;;;;0.66;100.00;99361.94;5000726;28;20099;-78
2022/04/06 01:21:32;;;;;;;7.35;3.22;;;;;;;0.66;100.00;99364.56;5015854;28;20030;-76
2022/04/06 01:23:58;;;;;;;6.30;2.85;;;;;;;0.35;100.00;99309.75;5015520;28;20034;-78
2022/04/06 01:26:24;;;;;;;8.50;2.88;;;;;;;0.61;100.00;99351.03;5014749;28;20041;-78
2022/04/06 01:28:49;;;;;;;7.65;2.97;;;;;;;0.66;100.00;99360.13;5015592;28;20061;-77
2022/04/06 01:31:15;;;;;;;7.75;3.40;;;;;;;0.67;100.00;99356.47;4999238;28;20042;-78
2022/04/06 01:33:40;;;;;;;5.25;2.92;;;;;;;0.69;100.00;99353.66;5014712;28;20486;-78
2022/04/06 01:36:06;;;;;;;8.50;2.88;;;;;;;0.62;100.00;99353.50;5015289;28;20034;-77
2022/04/06 01:38:32;;;;;;;7.95;2.80;;;;;;;0.46;100.00;99327.09;5015779;28;20420;-78
2022/04/06 01:40:57;;;;;;;8.63;2.80;;;;;;;0.67;100.00;99363.59;5022474;28;20499;-78
2022/04/06 01:43:23;;;;;;;11.48;2.80;;;;;;;0.45;100.00;99330.75;5026865;28;20128;-78
2022/04/06 01:45:49;;;;;;;7.65;2.60;;;;;;;0.65;100.00;99355.81;5015993;28;20030;-78
2022/04/06 01:48:15;;;;;;;12.77;2.92;;;;;;;0.67;100.00;99353.00;5015715;28;20037;-78
2022/04/06 01:53:27;;;;;;;9.52;2.88;;;;;;;0.50;100.00;99332.88;5015368;28;20049;-78
2022/04/06 01:55:54;;;;;;;6.72;2.90;;;;;;;0.55;100.00;99343.78;5015808;28;20104;-78
2022/04/06 01:58:20;;;;;;;10.40;3.15;;;;;;;0.58;100.00;99354.84;5014787;28;20057;-78
2022/04/06 02:00:47;;;;;;;8.45;2.80;;;;;;;0.56;100.00;99353.34;5014159;28;20036;-78
2022/04/06 02:03:13;;;;;;;8.95;2.83;;;;;;;0.52;100.00;99349.41;5014902;28;20149;-78
2022/04/06 02:05:38;;;;;;;7.50;2.70;;;;;;;0.15;100.00;99282.06;5014513;28;20479;-77
2022/04/06 02:08:06;;;;;;;10.13;2.72;;;;;;;0.53;100.00;99343.13;5014070;28;20035;-78
2022/04/06 02:10:32;;;;;;;10.80;2.97;;;;;;;0.53;100.00;99337.81;5014213;28;20062;-77
2022/04/06 02:12:58;;;;;;;8.30;2.83;;;;;;;0.46;100.00;99327.94;5014883;28;20129;-78
2022/04/06 02:15:24;;;;;;;9.73;2.97;;;;;;;0.52;100.00;99338.81;5015653;28;20030;-78
2022/04/06 02:17:50;;;;;;;10.55;2.58;;;;;;;0.56;100.00;99329.53;5014800;28;20041;-78
2022/04/06 02:20:17;;;;;;;7.60;2.85;;;;;;;0.37;100.00;99299.84;5014199;28;20050;-78
2022/04/06 02:22:43;;;;;;;5.90;2.80;;;;;;;0.58;100.00;99330.22;4998075;28;20033;-78
2022/04/06 02:25:12;;;;;;;4.55;2.50;;;;;;;0.60;100.00;99325.56;5015394;28;20096;-78
2022/04/06 02:27:49;;;;;;;8.98;2.60;;;;;;;0.62;100.00;99326.22;5014194;28;20068;-78
2022/04/06 02:30:15;;;;;;;5.88;2.60;;;;;;;0.65;100.00;99321.41;5015990;28;20566;-78
2022/04/06 02:32:41;;;;;;;8.27;2.63;;;;;;;0.68;100.00;99323.72;5015616;28;20109;-77
2022/04/06 02:35:07;;;;;;;8.48;2.80;;;;;;;0.68;100.00;99312.31;5015105;28;20115;-78
2022/04/06 02:37:32;;;;;;;9.98;3.20;;;;;;;0.74;100.00;99308.97;5013224;28;20040;-78
2022/04/06 02:39:57;;;;;;;8.18;2.95;;;;;;;0.77;100.00;99313.91;4997064;28;20038;-78
2022/04/06 02:42:23;;;;;;;10.57;2.78;;;;;;;0.82;100.00;99318.69;5015308;28;20037;-77
2022/04/06 02:44:49;;;;;;;9.40;2.58;;;;;;;0.86;100.00;99310.25;5014178;28;20033;-78
2022/04/06 02:47:14;;;;;;;11.20;3.80;;;;;;;0.89;100.00;99312.53;5014870;28;20034;-78
2022/04/06 02:49:39;;;;;;;8.10;3.40;;;;;;;0.92;100.00;99306.06;5012588;28;20037;-78
2022/04/06 02:52:05;;;;;;;7.50;3.22;;;;;;;0.98;100.00;99301.91;4998569;28;20065;-78
2022/04/06 02:54:31;;;;;;;11.93;3.20;;;;;;;0.99;100.00;99299.06;5013211;28;20105;-78
2022/04/06 02:56:56;;;;;;;12.32;3.10;;;;;;;1.01;100.00;99302.38;4977680;28;20030;-78
2022/04/06 02:59:23;;;;;;;10.63;3.13;;;;;;;1.01;100.00;99293.59;4994685;28;20037;-78
2022/04/06 03:01:48;;;;;;;14.68;3.55;;;;;;;1.03;100.00;99299.56;4996164;28;20120;-78
2022/04/06 03:04:14;;;;;;;8.38;2.90;;;;;;;1.03;100.00;99291.63;5000039;28;20053;-77
2022/04/06 03:06:40;;;;;;;9.05;3.15;;;;;;;0.59;100.00;99231.28;5021903;28;20089;-78
2022/04/06 03:09:06;;;;;;;10.68;3.17;;;;;;;1.03;100.00;99292.44;5015428;28;20033;-77
2022/04/06 03:11:31;;;;;;;11.57;3.38;;;;;;;1.06;100.00;99292.09;5016340;28;20040;-77
2022/04/06 03:13:57;;;;;;;10.55;2.97;;;;;;;1.03;100.00;99281.03;5016842;28;20030;-77
2022/04/06 03:16:22;;;;;;;11.45;3.53;;;;;;;1.11;100.00;99281.78;5016217;28;20122;-78
2022/04/06 03:18:48;;;;;;;14.82;3.70;;;;;;;1.13;100.00;99281.63;5017957;28;20033;-78
2022/04/06 03:21:13;;;;;;;18.27;4.03;;;;;;;0.79;100.00;99234.31;5014289;28;20048;-78
2022/04/06 03:23:39;;;;;;;13.07;3.45;;;;;;;0.98;100.00;99259.53;5014536;28;20034;-78
2022/04/06 03:26:06;;;;;;;13.93;3.10;;;;;;;1.17;100.00;99274.97;5013902;28;20041;-78
2022/04/06 03:28:31;;;;;;;12.82;3.67;;;;;;;1.18;100.00;99273.94;5013249;28;20060;-78
2022/04/06 03:30:58;;;;;;;13.30;3.22;;;;;;;1.20;100.00;99277.25;5012425;28;20125;-78
2022/04/06 03:33:23;;;;;;;12.00;3.80;;;;;;;1.24;100.00;99273.25;5016259;28;20033;-78
2022/04/06 03:35:49;;;;;;;17.20;3.90;;;;;;;1.26;100.00;99270.41;5013551;28;20026;-78
2022/04/06 03:38:14;;;;;;;20.30;3.85;;;;;;;1.28;100.00;99269.25;5013360;28;20053;-78
2022/04/06 03:40:40;;;;;;;16.10;3.88;;;;;;;1.29;100.00;99267.41;5014114;28;20169;-78
2022/04/06 03:43:05;;;;;;;18.73;4.38;;;;;;;1.32;100.00;99259.09;5015100;28;20473;-77
2022/04/06 03:45:31;;;;;;;16.48;3.60;;;;;;;1.34;100.00;99257.94;5010404;28;20049;-77
2022/04/06 03:47:56;;;;;;;19.30;4.03;;;;;;;1.37;100.00;99262.06;5011656;28;20333;-78
2022/04/06 03:50:22;;;;;;;13.88;3.75;;;;;;;1.26;100.00;99242.13;5014228;28;20041;-77
2022/04/06 03:52:47;;;;;;;14.95;3.85;;;;;;;1.39;100.00;99255.59;5022237;28;20375;-78
2022/04/06 03:55:12;;;;;;;13.25;4.25;;;;;;;1.35;100.00;99240.19;5014035;28;20057;-78
2022/04/06 03:57:38;;;;;;;22.15;4.03;;;;;;;1.42;100.00;99243.78;4979348;28;20034;-78
2022/04/06 04:00:08;;;;;;;17.98;4.28;;;;;;;1.41;100.00;99242.97;5012768;28;20104;-78
2022/04/06 04:02:33;;;;;;;19.55;4.13;;;;;;;1.34;100.00;99220.84;5011473;28;20041;-79
2022/04/06 04:05:03;;;;;;;23.80;4.47;;;;;;;1.41;100.00;99236.84;4994209;28;20391;-78
2022/04/06 04:07:29;;;;;;;16.75;4.85;;;;;;;1.43;100.00;99228.72;5013204;28;20491;-78
2022/04/06 04:09:56;;;;;;;22.08;4.35;;;;;;;1.40;100.00;99225.44;5012969;28;20046;-76
2022/04/06 04:12:21;;;;;;;22.92;4.03;;;;;;;1.28;100.00;99199.53;5013886;28;20113;-78
2022/04/06 04:14:47;;;;;;;14.63;4.53;;;;;;;1.38;100.00;99218.66;5013641;28;20417;-78
2022/04/06 04:17:13;;;;;;;24.35;3.90;;;;;;;1.12;100.00;99169.50;5010466;28;20049;-78
2022/04/06 04:19:38;;;;;;;17.73;4.68;;;;;;;1.38;100.00;99208.88;5014598;28;20329;-78
2022/04/06 04:22:04;;;;;;;20.52;4.70;;;;;;;1.54;100.00;99223.81;5013920;28;20052;-78
2022/04/06 04:24:29;;;;;;;21.20;4.63;;;;;;;1.57;100.00;99227.94;5007942;28;20022;-79
2022/04/06 04:26:55;;;;;;;14.38;4.35;;;;;;;1.53;100.00;99213.41;5005799;28;20350;-79
2022/04/06 04:29:20;;;;;;;25.08;5.15;;;;;;;1.51;100.00;99197.66;5009574;28;20049;-79
2022/04/06 04:31:46;;;;;;;26.98;5.13;;;;;;;1.63;100.00;99230.69;5018508;28;20021;-80
2022/04/06 04:34:14;;;;;;;24.95;4.38;;;;;;;1.65;100.00;99217.25;5016870;28;20076;-79
2022/04/06 04:36:40;;;;;;;23.92;5.28;;;;;;;1.67;100.00;99220.53;5012963;28;20014;-78
2022/04/06 04:39:05;;;;;;;19.48;4.25;;;;;;;1.56;100.00;99197.13;5012584;28;20060;-79
2022/04/06 04:41:31;;;;;;;23.25;4.88;;;;;;;1.56;100.00;99186.53;5012329;28;20838;-79
2022/04/06 04:43:56;;;;;;;17.42;4.43;;;;;;;1.59;100.00;99194.09;5012072;28;20113;-78
2022/04/06 04:46:22;;;;;;;20.67;4.85;;;;;;;1.78;100.00;99222.75;5011767;28;20014;-78
2022/04/06 04:48:48;;;;;;;16.40;4.50;;;;;;;1.78;100.00;99213.97;5011516;28;20041;-78
2022/04/06 04:51:14;;;;;;;19.08;4.35;;;;;;;1.80;100.00;99212.78;5015263;28;20022;-78
2022/04/06 04:53:41;;;;;;;20.52;4.95;;;;;;;1.81;100.00;99206.47;5033048;28;20012;-81
2022/04/06 04:56:07;;;;;;;20.67;4.85;;;;;;;1.82;100.00;99201.97;5031294;28;20030;-81
2022/04/06 04:58:33;;;;;;;22.85;4.90;;;;;;;1.84;100.00;99202.63;5036931;28;20026;-82
2022/04/06 05:00:58;;;;;;;19.13;4.60;;;;;;;1.86;100.00;99211.25;5031895;28;20079;-82
2022/04/06 05:03:24;;;;;;;17.95;4.40;;;;;;;1.88;100.00;99204.72;5026861;28;20030;-82
2022/04/06 05:05:50;;;;;;;21.58;4.65;;;;;;;1.92;100.00;99201.72;5025731;28;20072;-82
2022/04/06 05:08:16;;;;;;;19.85;4.90;;;;;;;1.95;100.00;99201.34;5031682;28;20092;-82
2022/04/06 05:10:42;;;;;;;16.95;4.88;;;;;;;1.96;100.00;99201.19;5031410;28;20034;-83
2022/04/06 05:18:19;;;;;;;23.63;5.55;;;;;;;0.21;100.00;98911.88;5056442;23;20054;-80
2022/04/06 05:20:44;;;;;;;23.23;5.15;;;;;;;2.10;100.00;99192.38;5037985;28;20044;-82
2022/04/06 05:23:10;;;;;;;21.20;5.95;;;;;;;1.43;100.00;99097.03;5034993;28;20048;-82
2022/04/06 05:25:36;;;;;;;24.27;4.88;;;;;;;2.18;100.00;99172.06;5035477;28;20059;-81
2022/04/06 05:28:01;;;;;;;17.77;4.82;;;;;;;2.11;100.00;99154.22;5031963;28;20027;-81
2022/04/06 05:30:27;;;;;;;21.23;5.10;;;;;;;2.26;100.00;99170.16;5034317;28;20041;-81
2022/04/06 05:32:54;;;;;;;18.73;4.72;;;;;;;2.30;100.00;99168.75;5027943;28;20013;-82
2022/04/06 05:35:21;;;;;;;18.83;4.70;;;;;;;2.31;100.00;99174.88;5027293;28;20101;-81
2022/04/06 05:37:46;;;;;;;21.40;5.43;;;;;;;2.33;100.00;99171.03;5022738;28;20041;-80
2022/04/06 05:40:14;;;;;;;17.70;4.65;;;;;;;2.34;100.00;99164.72;5016660;28;20115;-80
2022/04/06 05:42:41;;;;;;;25.17;5.43;;;;;;;2.39;100.00;99161.53;5029664;28;20030;-81
2022/04/06 05:45:07;;;;;;;20.13;4.80;;;;;;;2.42;100.00;99160.31;5039156;28;20013;-81
2022/04/06 05:47:33;;;;;;;16.23;4.88;;;;;;;2.38;100.00;99140.47;5044255;28;20379;-81
2022/04/06 05:50:00;;;;;;;25.05;5.15;;;;;;;2.47;100.00;99157.94;5036558;28;20034;-80
2022/04/06 05:52:25;;;;;;;20.40;4.53;;;;;;;2.44;100.00;99150.34;5027185;28;20022;-82
2022/04/06 05:54:53;;;;;;;17.77;4.95;;;;;;;2.50;100.00;99150.41;5031842;28;20041;-81
2022/04/06 05:57:19;;;;;;;21.98;5.13;;;;;;;2.54;100.00;99153.50;5024461;28;20029;-81
2022/04/06 05:59:45;;;;;;;23.85;5.38;;;;;;;2.58;100.00;99144.16;5024042;28;20033;-81
2022/04/06 06:02:11;;;;;;;15.02;4.68;;;;;;;2.58;100.00;99137.03;5024146;28;20029;-79
2022/04/06 06:04:38;;;;;;;29.33;5.28;;;;;;;2.49;100.00;99106.28;5016327;28;20451;-79
2022/04/06 06:07:06;;;;;;;29.60;5.03;;;;;;;2.72;100.00;99143.28;5015233;28;20045;-80
2022/04/06 06:09:32;;;;;;;19.65;4.50;;;;;;;2.57;100.00;99108.00;4992104;28;20030;-80
2022/04/06 06:11:59;;;;;;;19.05;5.32;;;;;;;2.80;100.00;99134.38;5023913;28;20033;-82
2022/04/06 06:14:26;;;;;;;26.42;4.82;;;;;;;2.86;100.00;99127.47;5029756;28;20036;-82
2022/04/06 06:16:51;;;;;;;19.20;3.95;;;;;;;2.91;100.00;99123.22;5026123;28;20057;-83
2022/04/06 06:19:17;;;;;;;18.20;4.70;;;;;;;2.94;100.00;99120.19;5032169;28;20042;-82
2022/04/06 06:21:43;;;;;;;19.25;4.40;;;;;;;2.99;100.00;99119.63;5027551;28;20033;-83
2022/04/06 06:24:08;;;;;;;19.10;4.40;;;;;;;2.62;100.00;99063.13;5013327;28;20025;-83
2022/04/06 06:26:38;;;;;;;18.08;4.40;;;;;;;3.12;100.00;99121.59;4996970;28;20057;-83
2022/04/06 06:29:04;;;;;;;21.88;5.03;;;;;;;3.17;100.00;99117.31;5032514;28;20018;-83
2022/04/06 06:31:31;;;;;;;17.08;4.30;;;;;;;3.17;100.00;99106.69;5035023;28;20030;-83
2022/04/06 06:34:00;;;;;;;22.05;4.47;;;;;;;3.27;100.00;99116.97;5036220;28;20014;-84
2022/04/06 06:36:26;;;;;;;16.75;4.40;;;;;;;3.20;100.00;99103.63;5035037;28;20040;-84
2022/04/06 06:38:53;;;;;;;22.92;4.80;;;;;;;3.28;100.00;99097.38;5036342;28;20296;-83
2022/04/06 06:41:19;;;;;;;20.33;4.68;;;;;;;3.39;100.00;99115.44;5037640;28;20034;-84
2022/04/06 06:43:48;;;;;;;21.00;4.80;;;;;;;3.45;100.00;99114.66;5038559;28;20018;-83
2022/04/06 06:46:17;;;;;;;20.25;4.55;;;;;;;3.43;100.00;99094.59;5037444;28;20053;-84
2022/04/06 06:48:42;;;;;;;16.13;4.07;;;;;;;3.44;100.00;99085.59;5038498;28;20053;-84
2022/04/06 06:51:08;;;;;;;19.70;4.15;;;;;;;3.39;100.00;99062.25;5038576;28;20206;-84
2022/04/06 06:53:33;;;;;;;16.92;4.50;;;;;;;3.62;100.00;99079.78;5038390;28;19998;-83
2022/04/06 06:58:34;;;;;;;24.75;4.88;;;;;;;1.99;100.00;98807.41;5084113;23;20026;-83
2022/04/06 07:01:00;;;;;;;20.42;4.22;;;;;;;2.49;100.00;98866.56;5037591;28;20105;-83
2022/04/06 07:03:26;;;;;;;27.40;5.15;;;;;;;3.75;100.00;99059.38;5028286;28;20021;-83
2022/04/06 07:11:02;;;;;;;19.85;4.80;;;;;;;2.32;100.00;98789.06;5113225;23;20063;-82
2022/04/06 07:13:29;;;;;;;18.38;5.15;;;;;;;4.10;100.00;99072.59;5074510;28;20026;-82
2022/04/06 07:15:54;;;;;;;14.40;4.90;;;;;;;4.16;100.00;99058.50;5052833;28;20037;-82
2022/04/06 07:18:21;;;;;;;17.92;5.65;;;;;;;2.68;100.00;98830.47;5053230;28;20021;-83
2022/04/06 07:20:47;;;;;;;18.95;4.38;;;;;;;3.21;100.00;98887.34;5057727;28;20025;-83
2022/04/06 07:23:13;;;;;;;23.95;4.53;;;;;;;2.50;100.00;98759.34;5057997;28;20009;-83
2022/04/06 07:25:40;;;;;;;20.80;4.72;;;;;;;2.67;100.00;98789.84;5057885;28;20025;-83
2022/04/06 07:28:06;;;;;;;20.75;5.18;;;;;;;2.79;100.00;98798.88;5057613;28;20013;-83
2022/04/06 07:30:32;;;;;;;13.88;4.05;;;;;;;2.70;100.00;98778.00;5058632;28;20037;-84
2022/04/06 07:32:59;;;;;;;20.05;4.80;;;;;;;4.50;100.00;99058.56;5057778;28;20010;-84
2022/04/06 07:35:25;;;;;;;17.83;4.60;;;;;;;4.47;100.00;99051.84;5058154;28;20026;-83
2022/04/06 07:37:51;;;;;;;24.30;4.75;;;;;;;4.42;100.00;99024.97;5057890;28;20022;-84
2022/04/06 07:56:02;;;;;;;19.95;3.78;;;;;;;3.06;100.00;98751.16;5017213;22;20045;-85
2022/04/06 08:46:20;;;;;;;3.35;0.85;;;;;;;3.67;100.00;99050.75;5572906;22;20091;-85
2022/04/06 08:48:54;;;;;;;1.38;0.60;;;;;;;3.63;100.00;99052.16;5027798;28;20097;-85
2022/04/06 14:21:23;;;;;;;1.52;0.43;;;;;;;2.56;100.00;98477.16;6009003;23;20019;31
2022/04/06 14:36:46;;;;;;;2.15;0.40;;;;;;;2.43;100.00;98487.75;5987299;23;20023;31
2022/04/06 14:39:12;;;;;;;0.70;0.30;;;;;;;0.89;100.00;98237.53;5082356;23;20008;-82
2022/04/06 14:41:37;;;;;;;0.65;0.30;;;;;;;2.20;100.00;98470.38;4958478;28;20432;-84
2022/04/06 14:49:14;;;;;;;1.52;0.40;;;;;;;1.63;100.00;98321.41;5226666;23;20392;-81
2022/04/06 14:51:40;;;;;;;0.35;0.35;;;;;;;0.77;100.00;98148.31;4960631;28;20020;-83
2022/04/06 14:56:43;;;;;;;0.70;0.30;;;;;;;1.38;100.00;98251.47;4921536;29;20036;-84
2022/04/06 15:01:44;;;;;;;2.00;0.85;;;;;;;0.58;100.00;98176.38;6032711;23;20285;-77
2022/04/06 15:04:10;;;;;;;1.00;0.30;;;;;;;0.84;100.00;98242.59;5539610;23;20067;-83
2022/04/06 15:06:35;;;;;;;0.60;0.43;;;;;;;0.88;100.00;98214.72;4958923;29;20091;-80
2022/04/06 15:09:02;;;;;;;1.52;0.40;;;;;;;1.67;100.00;98335.06;4954235;28;20329;-83
2022/04/06 15:11:29;;;;;;;0.95;0.30;;;;;;;1.63;100.00;98294.09;4954496;28;20047;-82
2022/04/06 15:13:55;;;;;;;0.85;0.40;;;;;;;2.70;100.00;98454.88;4956980;29;20047;-83
2022/04/06 15:16:21;;;;;;;9.70;4.13;;;;;;;2.23;100.00;98350.59;4963480;28;20043;-82
2022/04/06 15:18:47;;;;;;;7.32;3.92;;;;;;;1.47;100.00;98228.25;4959047;28;20047;-82
2022/04/06 15:21:17;;;;;;;1.35;0.50;;;;;;;1.64;100.00;98242.72;4955637;28;20028;-82
2022/04/06 15:28:53;;;;;;;0.70;0.60;;;;;;;1.66;100.00;98166.47;5906950;23;20327;-83
2022/04/06 15:33:54;;;;;;;5.55;3.20;;;;;;;1.82;100.00;98194.34;5556172;23;20051;-82
2022/04/06 15:38:56;;;;;;;1.13;1.02;;;;;;;1.61;100.00;98253.72;5222141;23;20083;-83
2022/04/06 15:41:22;;;;;;;3.25;2.45;;;;;;;1.56;100.00;98222.53;4944770;28;20028;-83
2022/04/06 15:43:47;;;;;;;2.70;1.80;;;;;;;2.21;100.00;98315.47;4954260;29;20012;-83
2022/04/06 15:46:13;;;;;;;4.90;4.40;;;;;;;1.57;100.00;98180.94;4949079;28;20027;-83
2022/04/06 15:48:38;;;;;;;20.95;16.48;;;;;;;1.18;100.00;98119.81;5289679;23;20053;-80
2022/04/06 15:51:04;;;;;;;6.82;5.90;;;;;;;2.28;100.00;98289.75;4927767;29;20071;-80
2022/04/06 15:53:30;;;;;;;2.67;2.40;;;;;;;2.14;100.00;98252.84;4913219;29;20052;-81
2022/04/06 15:55:58;;;;;;;2.25;1.58;;;;;;;2.59;100.00;98373.19;4900572;29;20430;-82
2022/04/06 15:58:24;;;;;;;1.00;0.68;;;;;;;2.78;100.00;98366.19;4898123;29;20123;-80
2022/04/06 16:00:49;;;;;;;92.38;41.42;;;;;;;2.85;100.00;98384.75;4891041;29;20458;-81
2022/04/06 16:03:16;;;;;;;3.78;2.20;;;;;;;2.72;100.00;98356.44;4898594;29;20036;-80
2022/04/06 16:05:45;;;;;;;5.63;4.00;;;;;;;2.81;100.00;98369.28;4891133;29;20040;-80
2022/04/06 16:08:12;;;;;;;5.07;4.57;;;;;;;2.61;100.00;98375.63;4911211;29;20128;-80
2022/04/06 16:10:38;;;;;;;3.88;3.30;;;;;;;2.71;100.00;98357.44;4888832;29;20437;-81
2022/04/06 16:13:04;;;;;;;4.35;3.95;;;;;;;2.78;100.00;98351.09;4894803;29;20029;-80
2022/04/06 16:15:30;;;;;;;4.20;3.58;;;;;;;2.86;100.00;98363.31;4878009;29;20040;-78
2022/04/06 16:17:55;;;;;;;18.38;12.48;;;;;;;2.86;100.00;98363.31;4899251;29;20033;-81
2022/04/06 16:20:21;;;;;;;0.80;0.55;;;;;;;2.59;100.00;98349.31;4919291;29;20037;-80
2022/04/06 16:22:46;;;;;;;0.70;0.45;;;;;;;2.62;100.00;98353.41;4908380;29;20032;-81
2022/04/06 16:35:32;;;;;;;0.60;0.50;;;;;;;1.64;100.00;98181.75;5315395;23;20062;-82
2022/04/06 16:37:59;;;;;;;3.72;3.42;;;;;;;2.10;100.00;98269.16;5021244;23;20044;-82
2022/04/06 16:40:25;;;;;;;1.58;0.90;;;;;;;2.05;100.00;98249.59;4938657;29;20047;-81
2022/04/06 16:42:50;;;;;;;2.25;1.65;;;;;;;0.93;100.00;98069.31;4935934;29;20020;-83
2022/04/06 16:45:16;;;;;;;3.20;1.33;;;;;;;2.71;100.00;98352.13;4929863;29;20035;-81
2022/04/06 16:47:41;;;;;;;2.90;2.65;;;;;;;2.66;100.00;98338.66;4926853;29;20025;-82
2022/04/06 16:52:52;;;;;;;0.68;0.45;;;;;;;2.05;100.00;98270.81;4927500;29;20116;-82
2022/04/06 16:55:19;;;;;;;0.85;0.57;;;;;;;2.43;100.00;98329.31;4914683;29;20020;-81
2022/04/06 16:57:46;;;;;;;2.90;1.95;;;;;;;2.64;100.00;98352.13;4939325;29;20020;-83
2022/04/06 17:02:48;;;;;;;1.10;0.70;;;;;;;1.50;100.00;98209.28;4930828;29;20048;-80
2022/04/06 17:05:15;;;;;;;4.25;0.82;;;;;;;2.55;100.00;98358.69;4930185;29;20044;-82
2022/04/06 17:15:27;;;;;;;1.90;0.60;;;;;;;2.25;100.00;98347.72;5886716;23;20062;-83
2022/04/06 17:17:52;;;;;;;1.55;0.77;;;;;;;1.10;100.00;98173.00;5418466;23;20143;-82
2022/04/06 17:35:49;;;;;;;1.27;0.90;;;;;;;1.83;100.00;98302.88;5058937;23;20036;-82
2022/04/06 17:48:35;;;;;;;2.15;1.13;;;;;;;1.76;100.00;98299.41;5804364;23;20059;-83
2022/04/06 17:51:00;;;;;;;2.20;1.02;;;;;;;1.80;100.00;98308.56;4960532;28;20043;-84
2022/04/06 17:53:27;;;;;;;1.50;1.00;;;;;;;1.83;100.00;98320.63;4965582;28;20011;-84
2022/04/06 17:55:53;;;;;;;1.83;1.40;;;;;;;1.75;100.00;98315.50;4981412;28;20091;-83
2022/04/06 19:25:10;;;;;;;3.67;2.22;;;;;;;1.63;100.00;98281.66;5377031;23;20078;-83
2022/04/06 19:35:23;;;;;;;3.10;1.80;;;;;;;1.58;100.00;98285.94;5422301;23;20055;-80
2022/04/06 19:37:49;;;;;;;3.00;2.00;;;;;;;0.44;100.00;98081.09;4956137;28;20016;-83
2022/04/06 19:40:15;;;;;;;2.75;1.90;;;;;;;0.14;100.00;98027.75;4939605;28;20066;-83
2022/04/06 19:42:43;;;;;;;2.88;1.90;;;;;;;1.81;100.00;98275.72;4935045;29;20458;-80
2022/04/06 19:45:10;;;;;;;2.85;2.10;;;;;;;1.70;100.00;98257.78;4941662;29;20043;-80
2022/04/06 19:47:36;;;;;;;3.72;2.20;;;;;;;1.70;100.00;98259.63;4928106;29;20028;-78
2022/04/06 19:50:03;;;;;;;3.15;2.15;;;;;;;1.71;100.00;98246.16;4936181;29;20032;-80
2022/04/06 19:52:29;;;;;;;2.90;2.00;;;;;;;1.73;100.00;98243.31;4952047;28;20031;-82
2022/04/06 19:54:55;;;;;;;4.57;2.80;;;;;;;1.86;100.00;98265.34;4954396;28;20135;-79
2022/04/06 19:59:55;;;;;;;3.47;2.35;;;;;;;0.43;100.00;98034.50;5074001;23;20451;-80
2022/04/06 20:02:21;;;;;;;3.90;2.10;;;;;;;2.01;100.00;98257.16;4930200;28;20028;-80
2022/04/06 20:04:46;;;;;;;3.13;2.45;;;;;;;2.02;100.00;98248.19;4921110;29;20150;-80
2022/04/06 20:07:11;;;;;;;2.92;2.30;;;;;;;1.79;100.00;98203.56;4918411;29;20040;-81
2022/04/06 20:09:37;;;;;;;2.53;2.10;;;;;;;1.98;100.00;98243.47;4918668;28;20020;-82
2022/04/06 20:12:03;;;;;;;4.60;2.38;;;;;;;1.99;100.00;98239.81;4920352;29;20458;-80
2022/04/06 20:14:28;;;;;;;4.97;2.53;;;;;;;2.04;100.00;98245.31;4929584;29;20060;-82
2022/04/06 20:16:54;;;;;;;4.28;2.05;;;;;;;2.05;100.00;98250.44;4930611;29;20056;-81
2022/04/06 20:19:20;;;;;;;3.85;2.78;;;;;;;2.12;100.00;98253.06;4917709;29;20028;-80
2022/04/06 20:21:46;;;;;;;6.40;3.95;;;;;;;2.17;100.00;98252.44;4914364;29;20159;-80
2022/04/06 20:24:11;;;;;;;6.10;3.95;;;;;;;2.13;100.00;98244.06;4923481;29;20087;-82
2022/04/06 20:26:38;;;;;;;3.17;2.50;;;;;;;2.20;100.00;98260.78;4915088;29;20028;-80
2022/04/06 20:29:04;;;;;;;4.72;2.50;;;;;;;2.06;100.00;98261.84;4921198;29;20370;-79
2022/04/06 20:31:30;;;;;;;3.05;2.15;;;;;;;2.02;100.00;98265.91;4912927;29;20032;-79
2022/04/06 20:33:56;;;;;;;3.10;2.65;;;;;;;1.91;100.00;98251.44;4914703;29;20811;-79
2022/04/06 20:36:22;;;;;;;3.05;2.00;;;;;;;1.98;100.00;98251.44;4912973;29;20008;-79
2022/04/06 20:38:48;;;;;;;2.60;2.20;;;;;;;1.94;100.00;98255.53;4931195;29;20103;-79
2022/04/06 20:41:14;;;;;;;3.17;2.40;;;;;;;1.96;100.00;98249.00;4910807;29;20166;-79
2022/04/06 20:43:41;;;;;;;5.43;2.60;;;;;;;2.02;100.00;98250.84;4924667;29;20359;-80
2022/04/06 20:46:07;;;;;;;5.07;2.63;;;;;;;1.61;100.00;98180.31;4922126;29;20044;-80
2022/04/06 20:48:33;;;;;;;3.17;2.30;;;;;;;1.79;100.00;98229.25;4914412;29;20028;-79
2022/04/06 20:50:58;;;;;;;4.20;2.40;;;;;;;1.88;100.00;98241.25;4911822;29;20853;-79
2022/04/06 20:53:25;;;;;;;4.72;3.00;;;;;;;1.86;100.00;98238.81;4914490;29;20408;-79
2022/04/06 20:55:52;;;;;;;4.57;2.67;;;;;;;1.98;100.00;98238.19;4891743;29;20020;-80
2022/04/06 20:58:18;;;;;;;5.13;2.35;;;;;;;2.03;100.00;98233.91;4927009;29;20084;-80
2022/04/06 21:00:44;;;;;;;3.50;2.22;;;;;;;1.81;100.00;98204.13;4924000;29;20016;-78
2022/04/06 21:03:09;;;;;;;3.33;2.40;;;;;;;2.06;100.00;98235.31;4916735;29;20031;-79
2022/04/06 21:05:35;;;;;;;2.90;2.50;;;;;;;1.88;100.00;98198.81;4929626;29;20088;-81
2022/04/06 21:08:01;;;;;;;3.30;2.30;;;;;;;1.94;100.00;98219.22;4925352;29;20040;-80
2022/04/06 21:10:26;;;;;;;3.88;2.60;;;;;;;1.89;100.00;98205.78;4936997;28;20016;-82
2022/04/06 21:12:53;;;;;;;3.05;2.50;;;;;;;2.05;100.00;98226.56;4923070;29;20044;-80
2022/04/06 21:15:19;;;;;;;4.80;2.58;;;;;;;2.16;100.00;98221.63;4929909;29;20039;-80